Terminal Aerodrome Forecast
Issued by NWS

Home | Current Version | Previous Version | Text Only | Print | Product List | Glossary Off
Versions: 1 2 3 4 5 6 7 8 9 10 11 12 13

000
FTUS43 KICT 281120
TAFHUT
TAF
KHUT 281120Z 2812/2912 18014KT P6SM VCSH SCT100
     FM281700 21010KT P6SM BKN120
     FM290100 36010KT P6SM BKN050=

USA.gov is the U.S. government's official web portal to all federal, state and local government web resources and services.